Time;durP1;ratioP1;P1;durP2;ratioP2;P2;SDS_P1;SDS_P2;PMS_P1;PMS_P2;Temp;Humidity;BMP_temperature;BMP_pressure;BME280_temperature;BME280_humidity;BME280_pressure;Samples;Min_cycle;Max_cycle;Signal;HPM_P1;HPM_P2
2021/01/27 00:00:14;;;;;;;5.78;3.80;;;;;;;;;;4976029;28;20050;-77
2021/01/27 00:02:40;;;;;;;7.32;3.92;;;;;;;;;;4993109;28;20058;-77
2021/01/27 00:05:09;;;;;;;5.22;3.72;;;;;;;;;;4991620;28;20478;-77
2021/01/27 00:07:35;;;;;;;9.77;4.25;;;;;;;;;;4975624;28;20489;-77
2021/01/27 00:10:03;;;;;;;6.50;4.35;;;;;;;;;;4993416;28;20141;-77
2021/01/27 00:12:30;;;;;;;7.18;3.75;;;;;;;;;;4975748;28;20046;-77
2021/01/27 00:14:56;;;;;;;4.70;3.65;;;;;;;;;;4992958;28;20050;-77
2021/01/27 00:17:22;;;;;;;6.57;3.85;;;;;;;;;;4992248;28;20050;-77
2021/01/27 00:19:48;;;;;;;10.48;3.90;;;;;;;;;;4992712;28;20050;-77
2021/01/27 00:22:14;;;;;;;4.78;3.25;;;;;;;;;;4992761;28;20050;-77
2021/01/27 00:24:40;;;;;;;7.20;3.67;;;;;;;;;;4992707;28;20512;-77
2021/01/27 00:27:06;;;;;;;7.25;3.35;;;;;;;;;;4991811;28;20053;-78
2021/01/27 00:29:32;;;;;;;6.97;3.33;;;;;;;;;;4991509;28;20042;-77
2021/01/27 00:31:58;;;;;;;3.08;2.50;;;;;;;;;;4992771;28;20054;-77
2021/01/27 00:34:25;;;;;;;4.25;3.17;;;;;;;;;;4992647;28;20046;-77
2021/01/27 00:36:51;;;;;;;7.35;3.17;;;;;;;;;;4992197;28;20095;-77
2021/01/27 00:39:17;;;;;;;5.60;3.65;;;;;;;;;;4975317;28;20100;-77
2021/01/27 00:41:44;;;;;;;7.55;3.92;;;;;;;;;;4991261;28;20061;-77
2021/01/27 00:44:10;;;;;;;6.75;3.90;;;;;;;;;;4959261;28;20058;-77
2021/01/27 00:46:36;;;;;;;8.85;4.15;;;;;;;;;;4990512;28;20517;-77
2021/01/27 00:49:03;;;;;;;5.28;4.10;;;;;;;;;;4992384;28;20046;-77
2021/01/27 00:51:29;;;;;;;5.03;3.83;;;;;;;;;;4991287;28;20061;-77
2021/01/27 00:53:55;;;;;;;5.25;3.90;;;;;;;;;;4993353;28;20390;-77
2021/01/27 00:56:21;;;;;;;5.32;3.63;;;;;;;;;;4991449;28;20509;-78
2021/01/27 00:58:49;;;;;;;5.45;3.58;;;;;;;;;;4992571;28;20046;-77
2021/01/27 01:01:15;;;;;;;7.18;3.80;;;;;;;;;;4992392;28;20050;-77
2021/01/27 01:03:41;;;;;;;5.45;3.70;;;;;;;;;;4992658;28;20081;-78
2021/01/27 01:06:07;;;;;;;7.85;4.25;;;;;;;;;;4990773;28;20050;-77
2021/01/27 01:08:33;;;;;;;7.30;4.43;;;;;;;;;;4992530;28;20046;-77
2021/01/27 01:11:00;;;;;;;7.68;4.65;;;;;;;;;;4992479;28;20108;-77
2021/01/27 01:13:29;;;;;;;7.72;4.97;;;;;;;;;;4992296;28;20065;-78
2021/01/27 01:15:55;;;;;;;9.85;5.65;;;;;;;;;;4990699;28;20054;-77
2021/01/27 01:18:22;;;;;;;9.23;5.68;;;;;;;;;;4975151;28;20050;-78
2021/01/27 01:20:49;;;;;;;6.18;4.43;;;;;;;;;;4992361;28;20069;-77
2021/01/27 01:23:20;;;;;;;6.85;5.22;;;;;;;;;;4975077;28;20134;-77
2021/01/27 01:25:47;;;;;;;8.52;5.13;;;;;;;;;;4975483;28;20057;-78
2021/01/27 01:28:14;;;;;;;9.27;5.25;;;;;;;;;;4974849;28;20629;-77
2021/01/27 01:30:42;;;;;;;6.57;4.97;;;;;;;;;;4975058;28;20109;-77
2021/01/27 01:33:17;;;;;;;13.77;5.47;;;;;;;;;;4994723;28;20097;-77
2021/01/27 01:35:44;;;;;;;7.20;5.10;;;;;;;;;;4995025;28;20050;-77
2021/01/27 01:38:10;;;;;;;6.90;4.40;;;;;;;;;;4995939;28;20050;-77
2021/01/27 01:40:42;;;;;;;6.28;4.57;;;;;;;;;;4994646;28;20077;-77
2021/01/27 01:43:18;;;;;;;8.10;4.85;;;;;;;;;;4978624;28;20527;-77
2021/01/27 01:45:46;;;;;;;9.55;4.35;;;;;;;;;;4993818;28;20057;-77
2021/01/27 01:48:32;;;;;;;7.22;4.88;;;;;;;;;;4990874;28;20082;-77
2021/01/27 01:51:24;;;;;;;8.00;4.75;;;;;;;;;;4993489;28;20050;-77
2021/01/27 01:53:52;;;;;;;9.98;4.85;;;;;;;;;;4992359;28;20062;-77
2021/01/27 01:56:20;;;;;;;7.53;5.20;;;;;;;;;;4975884;28;20054;-77
2021/01/27 01:58:46;;;;;;;7.75;5.30;;;;;;;;;;4994234;28;20053;-77
2021/01/27 02:01:13;;;;;;;6.78;5.03;;;;;;;;;;4978111;28;20054;-77
2021/01/27 02:03:39;;;;;;;9.75;5.10;;;;;;;;;;4994024;28;20055;-77
2021/01/27 02:06:10;;;;;;;8.52;4.97;;;;;;;;;;4993628;28;20050;-77
2021/01/27 02:08:38;;;;;;;8.32;4.45;;;;;;;;;;4994011;28;20050;-77
2021/01/27 02:11:04;;;;;;;9.18;4.65;;;;;;;;;;4978337;28;20054;-77
2021/01/27 02:13:39;;;;;;;7.55;4.53;;;;;;;;;;4979048;28;20058;-78
2021/01/27 02:16:19;;;;;;;7.18;4.32;;;;;;;;;;4995482;28;20401;-78
2021/01/27 02:19:03;;;;;;;7.35;5.15;;;;;;;;;;4994464;28;20516;-77
2021/01/27 02:22:01;;;;;;;5.88;4.40;;;;;;;;;;4994728;28;20101;-77
2021/01/27 02:24:45;;;;;;;6.43;4.38;;;;;;;;;;4993964;28;20062;-77
2021/01/27 02:27:25;;;;;;;7.45;4.68;;;;;;;;;;4993321;28;20054;-77
2021/01/27 02:30:02;;;;;;;6.88;4.43;;;;;;;;;;4978845;28;20086;-77
2021/01/27 02:32:38;;;;;;;7.53;4.68;;;;;;;;;;4993810;28;20572;-77
2021/01/27 02:35:06;;;;;;;5.40;4.68;;;;;;;;;;4993588;28;20530;-77
2021/01/27 02:37:57;;;;;;;9.25;5.07;;;;;;;;;;4993222;28;20174;-77
2021/01/27 02:41:03;;;;;;;8.43;4.50;;;;;;;;;;4993717;28;20117;-77
2021/01/27 02:43:38;;;;;;;6.57;3.55;;;;;;;;;;4992960;28;20117;-77
2021/01/27 02:46:19;;;;;;;6.25;4.35;;;;;;;;;;4977076;28;20498;-77
2021/01/27 02:49:10;;;;;;;6.90;4.43;;;;;;;;;;4977984;28;20050;-77
2021/01/27 02:51:42;;;;;;;7.38;5.20;;;;;;;;;;4993221;28;20564;-77
2021/01/27 02:54:32;;;;;;;7.40;4.57;;;;;;;;;;4997933;28;20109;-78
2021/01/27 02:57:20;;;;;;;10.70;5.70;;;;;;;;;;4997374;28;20050;-78
2021/01/27 02:59:57;;;;;;;6.50;4.90;;;;;;;;;;4998118;28;20054;-79
2021/01/27 03:02:50;;;;;;;9.45;5.13;;;;;;;;;;5001723;28;20077;-78
2021/01/27 03:05:21;;;;;;;10.45;5.07;;;;;;;;;;5000798;28;20466;-78
2021/01/27 03:07:56;;;;;;;10.68;4.72;;;;;;;;;;4997155;28;20465;-78
2021/01/27 03:10:31;;;;;;;8.25;4.80;;;;;;;;;;4981560;28;20046;-78
2021/01/27 03:12:57;;;;;;;9.13;4.78;;;;;;;;;;4997350;28;20054;-78
2021/01/27 03:15:23;;;;;;;8.70;5.28;;;;;;;;;;4995996;28;20046;-78
2021/01/27 03:17:55;;;;;;;7.75;5.00;;;;;;;;;;4994820;28;20059;-78
2021/01/27 03:20:35;;;;;;;8.00;4.40;;;;;;;;;;4984963;28;20572;-78
2021/01/27 03:23:22;;;;;;;7.32;5.32;;;;;;;;;;4971697;28;20046;-78
2021/01/27 03:26:23;;;;;;;7.43;4.70;;;;;;;;;;4986634;28;20074;-78
2021/01/27 03:29:02;;;;;;;9.82;5.50;;;;;;;;;;4987403;28;20047;-78
2021/01/27 03:31:28;;;;;;;7.60;5.50;;;;;;;;;;4986987;28;20046;-78
2021/01/27 03:34:04;;;;;;;8.20;5.60;;;;;;;;;;4985194;28;20101;-79
2021/01/27 03:36:33;;;;;;;6.75;4.68;;;;;;;;;;4968135;28;20058;-78
2021/01/27 03:38:59;;;;;;;8.20;5.70;;;;;;;;;;4985320;28;20046;-78
2021/01/27 03:44:25;;;;;;;8.45;4.97;;;;;;;;;;4970501;28;20054;-76
2021/01/27 03:47:04;;;;;;;9.02;5.70;;;;;;;;;;4970015;28;20090;-76
2021/01/27 03:49:32;;;;;;;7.10;5.10;;;;;;;;;;4971630;28;20394;-76
2021/01/27 03:52:02;;;;;;;10.23;6.35;;;;;;;;;;4989663;28;20096;-76
2021/01/27 03:54:29;;;;;;;7.35;5.18;;;;;;;;;;4991131;28;20049;-77
2021/01/27 03:57:07;;;;;;;9.13;5.63;;;;;;;;;;4990805;28;20409;-76
2021/01/27 03:59:33;;;;;;;10.13;5.47;;;;;;;;;;4991302;28;20069;-76
2021/01/27 04:01:59;;;;;;;8.55;5.43;;;;;;;;;;4991505;28;20077;-76
2021/01/27 04:04:27;;;;;;;6.85;5.00;;;;;;;;;;4992692;28;20105;-76
2021/01/27 04:06:53;;;;;;;9.73;5.43;;;;;;;;;;4991949;28;20058;-76
2021/01/27 04:09:20;;;;;;;11.55;5.38;;;;;;;;;;4991711;28;20497;-76
2021/01/27 04:11:46;;;;;;;7.30;5.15;;;;;;;;;;4991773;28;20054;-77
2021/01/27 04:14:12;;;;;;;11.43;5.57;;;;;;;;;;5007769;28;20050;-77
2021/01/27 04:16:40;;;;;;;6.85;5.05;;;;;;;;;;5006944;28;20105;-77
2021/01/27 04:19:07;;;;;;;8.85;5.25;;;;;;;;;;4991074;28;20129;-77
2021/01/27 04:21:33;;;;;;;7.50;4.40;;;;;;;;;;4990890;28;20050;-76
2021/01/27 04:24:01;;;;;;;5.70;4.30;;;;;;;;;;4934414;28;21385;-76
2021/01/27 04:26:27;;;;;;;6.93;4.35;;;;;;;;;;4983409;28;20050;-76
2021/01/27 04:28:53;;;;;;;6.70;4.20;;;;;;;;;;4991373;28;20100;-76
2021/01/27 04:31:19;;;;;;;7.18;5.00;;;;;;;;;;5007569;28;20116;-77
2021/01/27 04:33:46;;;;;;;6.25;4.70;;;;;;;;;;4991119;28;20058;-76
2021/01/27 04:36:12;;;;;;;12.60;5.53;;;;;;;;;;4990758;28;20046;-76
2021/01/27 04:38:39;;;;;;;7.95;4.45;;;;;;;;;;5007391;28;20046;-76
2021/01/27 04:41:05;;;;;;;6.20;3.88;;;;;;;;;;5007595;28;20100;-76
2021/01/27 04:43:37;;;;;;;6.63;3.72;;;;;;;;;;5007228;28;20054;-76
2021/01/27 04:46:25;;;;;;;5.95;4.47;;;;;;;;;;4990816;28;20090;-76
2021/01/27 04:48:55;;;;;;;6.43;4.00;;;;;;;;;;5006596;28;20138;-77
2021/01/27 04:51:25;;;;;;;6.15;3.90;;;;;;;;;;4991430;28;20104;-76
2021/01/27 04:54:01;;;;;;;6.05;4.00;;;;;;;;;;4990844;28;20069;-76
2021/01/27 04:57:03;;;;;;;8.05;4.70;;;;;;;;;;4991921;28;20081;-76
2021/01/27 05:00:07;;;;;;;7.75;4.80;;;;;;;;;;5001019;28;20116;-77
2021/01/27 05:02:52;;;;;;;7.28;4.95;;;;;;;;;;5007105;28;20512;-76
2021/01/27 05:05:31;;;;;;;7.55;5.22;;;;;;;;;;4991619;28;20054;-76
2021/01/27 05:08:10;;;;;;;7.57;4.45;;;;;;;;;;4994137;28;20054;-76
2021/01/27 05:10:59;;;;;;;7.78;4.28;;;;;;;;;;5011163;28;20054;-76
2021/01/27 05:13:26;;;;;;;8.00;4.13;;;;;;;;;;4996369;28;20050;-76
2021/01/27 05:15:55;;;;;;;7.50;4.60;;;;;;;;;;4994724;28;20057;-76
2021/01/27 05:18:21;;;;;;;6.85;3.88;;;;;;;;;;4995540;28;20054;-76
2021/01/27 05:20:49;;;;;;;6.25;3.92;;;;;;;;;;5011286;28;20047;-76
2021/01/27 05:23:15;;;;;;;8.15;4.18;;;;;;;;;;4995127;28;20050;-76
2021/01/27 05:25:44;;;;;;;5.38;4.15;;;;;;;;;;5010571;28;20138;-76
2021/01/27 05:28:19;;;;;;;5.35;4.25;;;;;;;;;;4996864;28;20046;-77
2021/01/27 05:30:52;;;;;;;9.27;5.07;;;;;;;;;;4994429;28;20047;-76
2021/01/27 05:33:18;;;;;;;7.22;4.20;;;;;;;;;;4994070;28;20568;-77
2021/01/27 05:35:46;;;;;;;5.65;4.40;;;;;;;;;;4993959;28;20092;-76
2021/01/27 05:38:30;;;;;;;5.43;3.92;;;;;;;;;;4997265;28;20103;-76
2021/01/27 05:41:07;;;;;;;6.70;4.35;;;;;;;;;;5007588;28;20050;-76
2021/01/27 05:43:35;;;;;;;6.13;4.15;;;;;;;;;;5009970;28;20105;-76
2021/01/27 05:46:14;;;;;;;8.30;4.65;;;;;;;;;;4993992;28;20104;-76
2021/01/27 05:48:43;;;;;;;10.95;6.15;;;;;;;;;;5010321;28;20047;-76
2021/01/27 05:51:13;;;;;;;9.25;5.38;;;;;;;;;;5010644;28;20489;-76
2021/01/27 05:53:39;;;;;;;7.55;5.70;;;;;;;;;;4994589;28;20460;-76
2021/01/27 05:56:09;;;;;;;12.82;6.53;;;;;;;;;;4993997;28;20501;-76
2021/01/27 05:58:36;;;;;;;7.60;5.05;;;;;;;;;;5010491;28;20047;-77
2021/01/27 06:01:13;;;;;;;7.28;4.88;;;;;;;;;;4994600;28;20050;-76
2021/01/27 06:04:09;;;;;;;8.43;4.78;;;;;;;;;;4994133;28;20061;-77
2021/01/27 06:06:56;;;;;;;8.13;4.25;;;;;;;;;;4999119;28;20105;-77
2021/01/27 06:09:30;;;;;;;9.45;5.13;;;;;;;;;;4993888;28;20069;-77
2021/01/27 06:12:00;;;;;;;7.60;6.40;;;;;;;;;;5010222;28;20413;-77
2021/01/27 06:14:26;;;;;;;8.20;5.45;;;;;;;;;;4994068;28;20058;-76
2021/01/27 06:16:52;;;;;;;8.93;5.32;;;;;;;;;;5009756;28;20134;-76
2021/01/27 06:19:21;;;;;;;6.80;5.00;;;;;;;;;;4995163;28;20097;-76
2021/01/27 06:21:57;;;;;;;7.00;3.90;;;;;;;;;;5009705;28;20051;-77
2021/01/27 06:24:34;;;;;;;7.20;3.80;;;;;;;;;;5010312;28;20428;-76
2021/01/27 06:27:19;;;;;;;6.10;4.18;;;;;;;;;;4993274;28;20054;-76
2021/01/27 06:30:07;;;;;;;7.35;4.28;;;;;;;;;;4994646;28;20046;-76
2021/01/27 06:32:46;;;;;;;7.60;3.60;;;;;;;;;;4977552;28;20050;-76
2021/01/27 06:35:39;;;;;;;7.60;4.35;;;;;;;;;;5009409;28;20050;-76
2021/01/27 06:38:20;;;;;;;5.22;4.35;;;;;;;;;;4993680;28;20054;-76
2021/01/27 06:41:17;;;;;;;5.75;3.42;;;;;;;;;;4994945;28;20105;-76
2021/01/27 06:43:59;;;;;;;6.78;3.45;;;;;;;;;;4994540;28;20062;-76
2021/01/27 06:46:32;;;;;;;5.53;3.72;;;;;;;;;;4993939;28;20086;-76
2021/01/27 06:49:14;;;;;;;4.75;3.50;;;;;;;;;;5009163;28;20569;-76
2021/01/27 06:51:46;;;;;;;5.68;3.78;;;;;;;;;;4994441;28;20116;-77
2021/01/27 06:54:21;;;;;;;5.60;3.50;;;;;;;;;;4994443;28;20058;-77
2021/01/27 06:57:03;;;;;;;5.63;3.83;;;;;;;;;;4993645;28;20464;-77
2021/01/27 06:59:29;;;;;;;5.82;4.05;;;;;;;;;;4993569;28;20050;-76
2021/01/27 07:02:24;;;;;;;4.70;3.05;;;;;;;;;;4994725;28;20542;-76
2021/01/27 07:05:02;;;;;;;8.15;3.53;;;;;;;;;;4996583;28;20054;-77
2021/01/27 07:08:06;;;;;;;5.40;3.60;;;;;;;;;;5018731;28;20042;-81
2021/01/27 07:10:41;;;;;;;6.68;3.08;;;;;;;;;;5019819;28;20038;-80
2021/01/27 07:13:31;;;;;;;5.40;4.00;;;;;;;;;;4999380;28;20063;-79
2021/01/27 07:16:10;;;;;;;5.03;3.70;;;;;;;;;;4999409;28;20062;-77
2021/01/27 07:19:12;;;;;;;5.13;3.50;;;;;;;;;;4997822;28;20031;-78
2021/01/27 07:21:45;;;;;;;6.85;3.60;;;;;;;;;;5009272;28;20065;-72
2021/01/27 07:24:17;;;;;;;5.60;3.67;;;;;;;;;;5027713;28;20046;-74
2021/01/27 07:27:03;;;;;;;8.38;3.47;;;;;;;;;;5023069;28;20030;-74
2021/01/27 07:29:32;;;;;;;5.35;4.18;;;;;;;;;;5004056;28;20050;-75
2021/01/27 07:32:08;;;;;;;7.82;3.88;;;;;;;;;;5016008;28;21266;-74
2021/01/27 07:34:48;;;;;;;5.18;3.58;;;;;;;;;;5014730;28;20054;-75
2021/01/27 07:37:40;;;;;;;5.68;3.70;;;;;;;;;;4991063;28;20062;-74
2021/01/27 07:40:19;;;;;;;5.88;3.42;;;;;;;;;;5027340;28;20046;-76
2021/01/27 07:43:10;;;;;;;5.97;3.50;;;;;;;;;;5012600;28;20035;-74
2021/01/27 07:45:37;;;;;;;6.45;3.45;;;;;;;;;;5005777;28;20037;-75
2021/01/27 07:48:12;;;;;;;9.15;3.53;;;;;;;;;;4998797;28;20050;-75
2021/01/27 07:50:40;;;;;;;4.97;3.85;;;;;;;;;;5013963;28;20026;-73
2021/01/27 07:53:24;;;;;;;6.35;3.95;;;;;;;;;;5015579;28;20038;-74
2021/01/27 07:56:16;;;;;;;8.00;3.90;;;;;;;;;;5015272;28;20279;-73
2021/01/27 07:58:45;;;;;;;5.85;3.80;;;;;;;;;;5014599;28;20038;-73
2021/01/27 08:01:20;;;;;;;6.95;3.80;;;;;;;;;;5016212;28;20057;-73
2021/01/27 08:04:23;;;;;;;4.82;3.40;;;;;;;;;;5014618;28;20081;-74
2021/01/27 08:06:54;;;;;;;5.47;3.42;;;;;;;;;;4983071;28;20223;-74
2021/01/27 08:09:38;;;;;;;5.93;3.05;;;;;;;;;;4999017;28;20042;-72
2021/01/27 08:12:16;;;;;;;5.20;3.55;;;;;;;;;;4984368;28;20401;-76
2021/01/27 08:15:06;;;;;;;5.70;3.67;;;;;;;;;;4988230;28;20054;-73
2021/01/27 08:17:45;;;;;;;8.60;3.22;;;;;;;;;;4979118;28;20129;-75
2021/01/27 08:20:37;;;;;;;6.40;2.55;;;;;;;;;;4988489;28;20050;-73
2021/01/27 08:23:23;;;;;;;5.47;3.72;;;;;;;;;;4988609;28;20501;-73
2021/01/27 08:26:07;;;;;;;6.07;2.90;;;;;;;;;;4992066;28;20497;-72
2021/01/27 08:28:36;;;;;;;2.75;1.77;;;;;;;;;;4989100;28;20046;-73
2021/01/27 08:31:09;;;;;;;2.28;1.70;;;;;;;;;;4986464;28;20490;-71
2021/01/27 08:33:57;;;;;;;4.47;1.80;;;;;;;;;;4988974;28;20046;-71
2021/01/27 08:36:29;;;;;;;2.83;1.98;;;;;;;;;;4988750;28;20493;-72
2021/01/27 08:38:56;;;;;;;3.50;2.30;;;;;;;;;;4988227;28;20054;-71
2021/01/27 08:41:55;;;;;;;4.45;2.60;;;;;;;;;;4987499;28;20073;-69
2021/01/27 08:44:21;;;;;;;3.72;2.30;;;;;;;;;;4988387;28;20046;-71
2021/01/27 08:46:59;;;;;;;5.03;2.80;;;;;;;;;;4988411;28;20074;-71
2021/01/27 08:49:46;;;;;;;4.82;2.83;;;;;;;;;;4986424;28;20093;-70
2021/01/27 08:52:12;;;;;;;3.60;2.38;;;;;;;;;;5003818;28;20394;-69
2021/01/27 08:54:41;;;;;;;8.00;2.97;;;;;;;;;;4989011;28;20046;-73
2021/01/27 08:57:21;;;;;;;4.20;3.08;;;;;;;;;;4984953;28;20109;-71
2021/01/27 08:59:51;;;;;;;3.25;2.50;;;;;;;;;;4989136;28;20101;-71
2021/01/27 09:02:40;;;;;;;4.55;3.50;;;;;;;;;;4994267;28;20081;-72
2021/01/27 09:05:14;;;;;;;3.33;2.25;;;;;;;;;;5002154;28;20046;-71
2021/01/27 09:07:50;;;;;;;;;;;;;;;;;;5004333;28;20117;-72
2021/01/27 09:10:17;;;;;;;3.97;2.60;;;;;;;;;;5005322;28;19971;-71
2021/01/27 09:12:46;;;;;;;3.20;2.58;;;;;;;;;;4989224;28;20054;-72
2021/01/27 09:15:23;;;;;;;3.22;2.20;;;;;;;;;;4987180;28;20055;-72
2021/01/27 09:17:49;;;;;;;3.15;2.38;;;;;;;;;;4989411;28;20125;-72
2021/01/27 09:20:22;;;;;;;3.40;2.50;;;;;;;;;;4989531;28;20436;-72
2021/01/27 09:22:48;;;;;;;5.70;3.17;;;;;;;;;;5005486;28;20526;-72
2021/01/27 09:25:15;;;;;;;7.43;2.90;;;;;;;;;;4988654;28;20054;-71
2021/01/27 09:27:42;;;;;;;5.35;2.78;;;;;;;;;;4997821;28;20057;-73
2021/01/27 09:30:11;;;;;;;9.73;3.60;;;;;;;;;;5005482;28;20042;-71
2021/01/27 09:32:38;;;;;;;5.38;3.08;;;;;;;;;;4977901;28;20468;-70
2021/01/27 09:35:22;;;;;;;6.65;3.78;;;;;;;;;;5005611;28;20496;-71
2021/01/27 09:37:54;;;;;;;5.07;3.38;;;;;;;;;;5001322;28;20086;-72
2021/01/27 09:40:28;;;;;;;4.82;3.22;;;;;;;;;;4998286;28;20042;-72
2021/01/27 09:42:59;;;;;;;5.82;3.08;;;;;;;;;;5040555;22;20471;-70
2021/01/27 09:45:29;;;;;;;4.10;3.20;;;;;;;;;;5014782;28;20056;-70
2021/01/27 09:47:57;;;;;;;4.82;3.28;;;;;;;;;;4971043;28;20062;-70
2021/01/27 09:50:25;;;;;;;5.38;3.50;;;;;;;;;;4976044;28;20501;-70
2021/01/27 09:52:56;;;;;;;9.77;4.30;;;;;;;;;;4964479;28;20121;-70
2021/01/27 09:55:24;;;;;;;4.25;3.38;;;;;;;;;;4962245;28;20090;-70
2021/01/27 09:57:50;;;;;;;6.05;4.03;;;;;;;;;;4984590;28;20403;-69
2021/01/27 10:00:32;;;;;;;7.32;4.20;;;;;;;;;;4986700;28;20054;-69
2021/01/27 10:03:20;;;;;;;6.47;3.80;;;;;;;;;;4982297;28;20501;-68
2021/01/27 10:05:47;;;;;;;6.40;4.13;;;;;;;;;;4978811;28;20047;-69
2021/01/27 10:08:40;;;;;;;10.48;4.82;;;;;;;;;;4984341;28;20426;-69
2021/01/27 10:11:31;;;;;;;10.25;5.70;;;;;;;;;;4982712;28;20047;-68
2021/01/27 10:13:59;;;;;;;5.03;4.38;;;;;;;;;;4977948;28;20051;-70
2021/01/27 10:16:26;;;;;;;7.70;4.97;;;;;;;;;;4967325;28;20525;-70
2021/01/27 10:19:01;;;;;;;5.10;4.07;;;;;;;;;;4982017;28;20058;-70
2021/01/27 10:21:28;;;;;;;7.10;3.85;;;;;;;;;;4965581;28;20506;-69
2021/01/27 10:23:54;;;;;;;5.80;4.03;;;;;;;;;;4968191;28;20052;-69
2021/01/27 10:26:22;;;;;;;4.60;3.28;;;;;;;;;;4983915;28;20537;-69
2021/01/27 10:29:09;;;;;;;4.40;3.63;;;;;;;;;;4960527;28;20102;-71
2021/01/27 10:31:36;;;;;;;5.75;3.10;;;;;;;;;;4989091;28;20081;-71
2021/01/27 10:34:02;;;;;;;6.03;4.43;;;;;;;;;;4979711;28;20050;-70
2021/01/27 10:36:37;;;;;;;9.45;3.55;;;;;;;;;;4981820;28;20058;-71
2021/01/27 10:39:25;;;;;;;6.70;3.20;;;;;;;;;;4981858;28;20125;-71
2021/01/27 10:42:15;;;;;;;3.35;2.78;;;;;;;;;;4982880;28;20085;-71
2021/01/27 10:45:16;;;;;;;3.33;2.40;;;;;;;;;;4984458;28;20517;-70
2021/01/27 10:47:43;;;;;;;2.67;1.80;;;;;;;;;;4984018;28;20453;-69
2021/01/27 10:50:10;;;;;;;4.60;2.10;;;;;;;;;;4965386;28;20129;-69
2021/01/27 10:52:56;;;;;;;2.83;2.25;;;;;;;;;;4969908;28;20050;-68
2021/01/27 10:55:22;;;;;;;4.22;1.88;;;;;;;;;;4982456;28;20085;-70
2021/01/27 10:57:49;;;;;;;4.32;2.20;;;;;;;;;;4965431;28;20050;-69
2021/01/27 11:00:17;;;;;;;3.38;2.10;;;;;;;;;;4974536;28;20042;-68
2021/01/27 11:02:44;;;;;;;2.00;1.80;;;;;;;;;;4979515;28;20104;-69
2021/01/27 11:05:11;;;;;;;3.10;2.30;;;;;;;;;;4979712;28;20147;-67
2021/01/27 11:07:39;;;;;;;4.40;2.45;;;;;;;;;;4980412;28;20072;-68
2021/01/27 11:10:06;;;;;;;2.90;2.30;;;;;;;;;;4984439;28;20047;-68
2021/01/27 11:12:32;;;;;;;5.40;2.40;;;;;;;;;;4980845;28;20059;-68
2021/01/27 11:14:59;;;;;;;8.15;4.57;;;;;;;;;;4982251;28;20063;-67
2021/01/27 11:17:25;;;;;;;6.55;3.88;;;;;;;;;;4979858;28;20128;-67
2021/01/27 11:19:52;;;;;;;3.90;2.83;;;;;;;;;;4977326;28;20149;-67
2021/01/27 11:22:18;;;;;;;5.20;3.05;;;;;;;;;;4979311;28;20112;-68
2021/01/27 11:24:44;;;;;;;6.20;3.70;;;;;;;;;;4984807;28;20093;-68
2021/01/27 11:27:11;;;;;;;4.70;4.00;;;;;;;;;;4982327;28;20050;-68
2021/01/27 11:29:38;;;;;;;5.40;3.78;;;;;;;;;;4977758;28;20438;-67
2021/01/27 11:32:04;;;;;;;4.30;3.75;;;;;;;;;;4980113;28;20050;-68
2021/01/27 11:34:30;;;;;;;5.20;3.65;;;;;;;;;;4978141;28;20053;-67
2021/01/27 11:36:57;;;;;;;4.82;3.70;;;;;;;;;;4967293;28;20146;-68
2021/01/27 11:39:23;;;;;;;4.20;3.45;;;;;;;;;;4956068;28;20506;-68
2021/01/27 11:41:49;;;;;;;5.38;3.70;;;;;;;;;;4964508;28;20122;-68
2021/01/27 11:44:15;;;;;;;4.50;3.70;;;;;;;;;;4949440;29;20090;-68
2021/01/27 11:46:43;;;;;;;4.65;3.38;;;;;;;;;;4955524;28;20157;-68
2021/01/27 11:49:09;;;;;;;6.13;4.53;;;;;;;;;;4971330;28;20086;-68
2021/01/27 11:51:35;;;;;;;6.45;4.30;;;;;;;;;;4971645;28;20078;-68
2021/01/27 11:54:01;;;;;;;7.35;4.82;;;;;;;;;;4971613;28;20121;-68
2021/01/27 11:56:27;;;;;;;5.97;4.30;;;;;;;;;;4955299;28;20071;-70
2021/01/27 11:58:54;;;;;;;4.97;3.88;;;;;;;;;;4970275;28;20055;-68
2021/01/27 12:01:20;;;;;;;5.55;3.92;;;;;;;;;;4973810;28;20504;-68
2021/01/27 12:03:47;;;;;;;4.15;3.38;;;;;;;;;;4980480;28;20105;-68
2021/01/27 12:06:14;;;;;;;4.68;3.50;;;;;;;;;;4981753;28;20057;-68
2021/01/27 12:08:41;;;;;;;4.45;3.88;;;;;;;;;;4981049;28;20457;-68
2021/01/27 12:11:07;;;;;;;5.78;4.28;;;;;;;;;;4976816;28;20094;-69
2021/01/27 12:13:34;;;;;;;4.38;3.38;;;;;;;;;;4979940;28;20054;-69
2021/01/27 12:16:00;;;;;;;5.88;4.20;;;;;;;;;;4968682;28;20062;-72
2021/01/27 12:18:27;;;;;;;8.02;4.95;;;;;;;;;;4975643;28;20054;-71
2021/01/27 12:20:54;;;;;;;5.28;4.68;;;;;;;;;;4977628;28;20058;-70
2021/01/27 12:23:20;;;;;;;5.63;4.85;;;;;;;;;;4979432;28;20042;-71
2021/01/27 12:25:47;;;;;;;6.70;5.90;;;;;;;;;;4978586;28;20509;-71
2021/01/27 12:28:14;;;;;;;6.32;4.93;;;;;;;;;;4978875;28;20046;-71
2021/01/27 12:30:40;;;;;;;8.77;6.40;;;;;;;;;;4976149;28;20045;-70
2021/01/27 12:33:09;;;;;;;6.40;4.82;;;;;;;;;;4981966;28;20050;-72
2021/01/27 12:35:37;;;;;;;4.93;4.18;;;;;;;;;;4979414;28;20138;-72
2021/01/27 12:38:03;;;;;;;5.82;4.82;;;;;;;;;;4977899;28;20054;-69
2021/01/27 12:40:30;;;;;;;5.50;3.95;;;;;;;;;;4979579;28;20053;-70
2021/01/27 12:42:57;;;;;;;7.30;4.47;;;;;;;;;;4978880;28;20545;-69
2021/01/27 12:45:26;;;;;;;5.30;3.50;;;;;;;;;;4979922;28;20055;-70
2021/01/27 12:47:53;;;;;;;5.25;3.38;;;;;;;;;;4979706;28;20058;-71
2021/01/27 12:50:21;;;;;;;7.75;3.10;;;;;;;;;;4977127;28;20130;-71
2021/01/27 12:52:47;;;;;;;4.60;2.90;;;;;;;;;;4980784;28;20050;-71
2021/01/27 12:55:15;;;;;;;4.28;3.08;;;;;;;;;;4979539;28;20217;-71
2021/01/27 12:57:43;;;;;;;4.18;2.95;;;;;;;;;;4975927;28;20402;-72
2021/01/27 13:00:17;;;;;;;3.20;2.90;;;;;;;;;;4977209;28;20047;-72
2021/01/27 13:02:43;;;;;;;4.53;2.85;;;;;;;;;;4979909;28;20130;-72
2021/01/27 13:05:10;;;;;;;4.70;2.83;;;;;;;;;;4979547;28;20055;-74
2021/01/27 13:07:36;;;;;;;3.58;2.40;;;;;;;;;;4980408;28;20414;-71
2021/01/27 13:10:04;;;;;;;3.50;2.53;;;;;;;;;;4981676;28;20150;-71
2021/01/27 13:12:30;;;;;;;3.90;2.83;;;;;;;;;;4979628;28;20509;-71
2021/01/27 13:14:56;;;;;;;3.78;2.40;;;;;;;;;;4977771;28;20051;-69
2021/01/27 13:17:40;;;;;;;3.67;2.47;;;;;;;;;;4955979;28;20050;-70
2021/01/27 13:20:09;;;;;;;4.45;2.85;;;;;;;;;;4955850;28;20095;-70
2021/01/27 13:22:39;;;;;;;5.78;2.47;;;;;;;;;;4979712;28;20078;-70
2021/01/27 13:25:07;;;;;;;4.85;2.90;;;;;;;;;;4980702;28;20134;-71
2021/01/27 13:27:43;;;;;;;3.50;2.72;;;;;;;;;;4975964;28;20496;-71
2021/01/27 13:30:11;;;;;;;3.95;2.80;;;;;;;;;;4978094;28;20042;-71
2021/01/27 13:32:38;;;;;;;4.70;3.08;;;;;;;;;;4964833;28;20062;-70
2021/01/27 13:35:06;;;;;;;3.95;2.92;;;;;;;;;;4981624;28;20055;-69
2021/01/27 13:37:33;;;;;;;2.80;2.50;;;;;;;;;;4984085;28;20050;-69
2021/01/27 13:39:59;;;;;;;4.22;2.97;;;;;;;;;;4982370;28;20047;-71
2021/01/27 13:42:26;;;;;;;5.50;3.28;;;;;;;;;;4984796;28;20070;-71
2021/01/27 13:44:53;;;;;;;3.33;3.00;;;;;;;;;;4983014;28;20078;-71
2021/01/27 13:47:20;;;;;;;4.63;3.00;;;;;;;;;;4978762;28;20054;-72
2021/01/27 13:49:48;;;;;;;3.90;2.65;;;;;;;;;;4960169;28;20519;-70
2021/01/27 13:52:15;;;;;;;3.65;2.72;;;;;;;;;;4955606;29;20502;-71
2021/01/27 13:54:41;;;;;;;2.83;2.45;;;;;;;;;;4953393;29;20514;-71
2021/01/27 13:57:07;;;;;;;3.25;2.70;;;;;;;;;;4952090;28;20458;-72
2021/01/27 13:59:33;;;;;;;4.45;3.25;;;;;;;;;;4980680;28;20088;-71
2021/01/27 14:01:59;;;;;;;3.10;2.80;;;;;;;;;;4984620;28;20058;-70
2021/01/27 14:04:26;;;;;;;5.22;3.17;;;;;;;;;;4985229;28;20133;-71
2021/01/27 14:06:53;;;;;;;5.15;3.85;;;;;;;;;;4984237;28;20050;-71
2021/01/27 14:09:20;;;;;;;10.65;6.20;;;;;;;;;;4984447;28;20046;-70
2021/01/27 14:11:46;;;;;;;5.43;3.60;;;;;;;;;;4985668;28;20121;-71
2021/01/27 14:14:13;;;;;;;5.95;3.47;;;;;;;;;;4987525;28;20108;-71
2021/01/27 14:16:39;;;;;;;4.40;3.25;;;;;;;;;;4982843;28;20077;-71
2021/01/27 14:19:05;;;;;;;4.80;3.35;;;;;;;;;;4962990;28;20047;-72
2021/01/27 14:21:32;;;;;;;8.32;3.50;;;;;;;;;;4986346;28;20465;-71
2021/01/27 14:23:58;;;;;;;5.95;3.67;;;;;;;;;;4986481;28;20596;-71
2021/01/27 14:26:24;;;;;;;7.43;5.10;;;;;;;;;;4968124;28;20141;-71
2021/01/27 14:28:50;;;;;;;6.30;4.00;;;;;;;;;;4959588;28;20113;-71
2021/01/27 14:31:16;;;;;;;4.82;3.50;;;;;;;;;;4954669;29;20082;-72
2021/01/27 14:33:43;;;;;;;4.90;3.65;;;;;;;;;;4956544;28;20042;-71
2021/01/27 14:36:10;;;;;;;6.97;4.35;;;;;;;;;;4979963;28;20233;-71
2021/01/27 14:38:37;;;;;;;4.95;4.00;;;;;;;;;;4983893;28;20188;-71
2021/01/27 14:41:04;;;;;;;8.02;4.57;;;;;;;;;;4984566;28;20418;-69
2021/01/27 14:43:30;;;;;;;4.70;3.65;;;;;;;;;;4984857;28;20502;-69
2021/01/27 14:45:57;;;;;;;5.22;3.90;;;;;;;;;;4981380;28;20145;-69
2021/01/27 14:48:24;;;;;;;5.20;3.67;;;;;;;;;;4981676;28;20053;-69
2021/01/27 14:50:50;;;;;;;10.02;4.80;;;;;;;;;;4982427;28;20062;-69
2021/01/27 14:53:17;;;;;;;8.48;4.03;;;;;;;;;;4981471;28;20047;-68
2021/01/27 14:55:44;;;;;;;7.95;4.45;;;;;;;;;;4983528;28;20054;-69
2021/01/27 14:58:10;;;;;;;7.53;4.03;;;;;;;;;;4980920;28;20051;-69
2021/01/27 15:00:37;;;;;;;6.57;3.90;;;;;;;;;;4985216;28;20050;-69
2021/01/27 15:03:04;;;;;;;4.47;3.70;;;;;;;;;;4985941;28;20138;-69
2021/01/27 15:05:31;;;;;;;7.82;4.43;;;;;;;;;;4974577;28;20058;-69
2021/01/27 15:07:57;;;;;;;8.40;4.32;;;;;;;;;;4974392;28;20051;-69
2021/01/27 15:10:26;;;;;;;8.20;4.25;;;;;;;;;;4972939;28;20078;-70
2021/01/27 15:12:52;;;;;;;6.57;4.03;;;;;;;;;;4968206;28;20055;-69
2021/01/27 15:15:19;;;;;;;4.28;3.63;;;;;;;;;;4953666;29;20424;-69